Time;durP1;ratioP1;P1;durP2;ratioP2;P2;SDS_P1;SDS_P2;PMS_P1;PMS_P2;Temp;Humidity;BMP_temperature;BMP_pressure;BME280_temperature;BME280_humidity;BME280_pressure;Samples;Min_cycle;Max_cycle;Signal;HPM_P1;HPM_P2
2023/07/20 10:27:40;;;;;;;11.05;6.47;;;30.50;74.10;;;;;;4218275;26;20051;-83
2023/07/20 10:30:07;;;;;;;12.43;7.57;;;30.50;74.20;;;;;;4995254;28;20035;-82
2023/07/20 10:32:33;;;;;;;11.05;7.28;;;30.60;74.80;;;;;;4971173;28;20030;-82
2023/07/20 10:34:59;;;;;;;;;;;30.70;73.90;;;;;;4994578;28;20037;-82
2023/07/20 10:37:50;;;;;;;13.38;7.00;;;30.70;74.40;;;;;;4975560;28;19906;-83
2023/07/20 10:40:25;;;;;;;10.52;5.75;;;30.80;74.20;;;;;;5018948;23;20013;-76
2023/07/20 10:42:55;;;;;;;11.65;6.05;;;30.90;72.50;;;;;;5043031;28;20037;-78
2023/07/20 10:45:32;;;;;;;13.85;5.88;;;31.00;70.40;;;;;;5047942;28;20033;-79
2023/07/20 10:47:58;;;;;;;13.57;6.22;;;31.00;70.60;;;;;;5040875;28;20029;-79
2023/07/20 10:50:24;;;;;;;8.90;6.77;;;31.10;70.90;;;;;;5049118;28;20044;-80
2023/07/20 10:53:15;;;;;;;7.80;4.90;;;31.10;68.70;;;;;;5033274;28;20282;-80
2023/07/20 10:55:42;;;;;;;12.05;5.38;;;31.30;66.30;;;;;;5039795;28;20041;-78
2023/07/20 10:58:09;;;;;;;5.70;4.72;;;31.30;63.10;;;;;;5041466;28;20067;-79
2023/07/20 11:00:36;;;;;;;12.48;6.70;;;31.30;63.70;;;;;;5034412;28;20045;-79
2023/07/20 11:03:02;;;;;;;12.55;6.05;;;31.30;66.50;;;;;;5024646;28;20045;-80
2023/07/20 11:05:42;;;;;;;14.30;8.73;;;31.50;69.40;;;;;;5037480;28;20104;-78
2023/07/20 11:08:12;;;;;;;13.27;7.80;;;31.70;68.80;;;;;;5023616;28;20029;-80
2023/07/20 11:10:38;;;;;;;12.88;6.80;;;31.80;68.30;;;;;;5033301;28;20025;-80
2023/07/20 11:13:25;;;;;;;12.30;6.00;;;31.90;67.90;;;;;;5036345;28;20041;-79
2023/07/20 11:15:57;;;;;;;13.98;6.05;;;32.10;69.50;;;;;;5036191;28;20030;-79
2023/07/20 11:18:26;;;;;;;8.52;5.93;;;32.20;67.60;;;;;;5041067;28;20874;-78
2023/07/20 11:20:53;;;;;;;11.57;5.85;;;32.40;67.20;;;;;;5029971;28;20049;-80
2023/07/20 11:23:20;;;;;;;7.80;5.63;;;32.50;66.30;;;;;;5033154;28;20045;-79
2023/07/20 11:25:46;;;;;;;13.02;6.57;;;32.60;65.70;;;;;;5045194;28;20025;-80
2023/07/20 11:28:12;;;;;;;10.60;6.78;;;32.60;63.90;;;;;;5052931;28;20030;-78
2023/07/20 11:30:52;;;;;;;9.40;5.20;;;32.60;65.00;;;;;;5050788;28;20029;-79
2023/07/20 11:33:17;;;;;;;9.18;5.38;;;32.70;65.20;;;;;;5024892;28;20093;-77
2023/07/20 11:35:46;;;;;;;12.00;6.07;;;32.80;64.60;;;;;;4999169;28;20034;-77
2023/07/20 11:38:13;;;;;;;12.55;5.80;;;32.90;66.00;;;;;;5001658;28;20033;-76
2023/07/20 11:40:45;;;;;;;10.40;5.60;;;33.00;64.10;;;;;;5001525;28;20121;-77
2023/07/20 11:43:12;;;;;;;7.03;5.10;;;33.00;63.30;;;;;;5019682;28;20080;-77
2023/07/20 11:45:39;;;;;;;9.68;5.60;;;33.10;64.30;;;;;;5006602;28;20034;-77
2023/07/20 11:48:05;;;;;;;10.77;5.57;;;33.20;63.00;;;;;;5018720;28;20049;-77
2023/07/20 11:50:32;;;;;;;10.77;6.13;;;33.20;62.40;;;;;;5034086;28;20483;-77
2023/07/20 11:52:58;;;;;;;10.13;5.22;;;33.30;62.40;;;;;;5014523;28;20033;-77
2023/07/20 11:55:24;;;;;;;11.20;4.95;;;33.40;62.40;;;;;;5033348;28;20104;-77
2023/07/20 11:58:05;;;;;;;8.43;5.05;;;33.40;61.20;;;;;;5035563;28;20029;-76
2023/07/20 12:00:32;;;;;;;10.85;5.80;;;33.40;59.40;;;;;;5038735;28;20018;-77
2023/07/20 12:02:59;;;;;;;6.97;5.50;;;33.40;59.30;;;;;;5035729;28;20036;-77
2023/07/20 12:05:26;;;;;;;7.15;5.28;;;33.50;60.50;;;;;;5012052;28;20094;-78
2023/07/20 12:07:52;;;;;;;9.02;5.43;;;33.60;60.80;;;;;;5018645;28;20396;-77
2023/07/20 12:10:24;;;;;;;;;;;33.60;59.90;;;;;;5042797;28;20101;-76
2023/07/20 12:12:49;;;;;;;7.93;6.15;;;33.60;60.10;;;;;;5040564;28;19937;-77
2023/07/20 12:15:32;;;;;;;8.98;4.93;;;33.60;60.40;;;;;;5042659;28;20054;-78
2023/07/20 12:17:59;;;;;;;9.82;5.65;;;33.70;60.30;;;;;;5036487;28;20030;-78
2023/07/20 12:20:36;;;;;;;7.88;4.88;;;34.00;59.80;;;;;;5004528;28;20061;-78
2023/07/20 12:23:09;;;;;;;7.18;3.75;;;34.20;58.30;;;;;;5045859;28;20502;-77
2023/07/20 12:25:40;;;;;;;7.00;3.72;;;34.20;57.00;;;;;;5024318;28;20061;-77
2023/07/20 12:28:17;;;;;;;8.10;3.90;;;34.30;57.10;;;;;;5001248;28;20037;-77
2023/07/20 12:30:44;;;;;;;6.35;3.53;;;34.30;56.10;;;;;;5037932;28;20026;-78
2023/07/20 12:33:11;;;;;;;3.38;3.05;;;34.40;55.70;;;;;;5042086;28;20040;-78
2023/07/20 12:35:37;;;;;;;11.88;3.67;;;34.40;54.90;;;;;;5034789;28;20084;-78
2023/07/20 12:38:03;;;;;;;8.80;3.05;;;34.60;54.20;;;;;;5035546;28;20022;-77
2023/07/20 12:40:29;;;;;;;4.07;2.95;;;34.70;55.00;;;;;;5037920;28;20088;-78
2023/07/20 12:42:55;;;;;;;6.90;3.33;;;34.90;55.30;;;;;;5009409;28;20033;-78
2023/07/20 12:45:22;;;;;;;8.50;3.70;;;35.00;56.00;;;;;;5029212;28;20048;-78
2023/07/20 12:47:48;;;;;;;4.40;2.90;;;35.20;55.60;;;;;;5034332;28;20026;-77
2023/07/20 12:50:13;;;;;;;8.52;3.40;;;35.20;55.20;;;;;;5022700;28;20030;-77
2023/07/20 12:52:40;;;;;;;9.85;3.83;;;35.30;55.20;;;;;;5036277;28;20022;-78
2023/07/20 12:55:07;;;;;;;6.25;3.25;;;35.10;54.30;;;;;;5044625;28;20029;-78
2023/07/20 12:57:34;;;;;;;8.45;3.65;;;35.20;56.60;;;;;;5039262;28;20026;-78
2023/07/20 13:00:05;;;;;;;3.83;3.17;;;35.30;56.20;;;;;;5019086;28;20040;-77
2023/07/20 13:02:32;;;;;;;4.57;3.42;;;35.40;55.00;;;;;;5013195;28;20030;-78
2023/07/20 13:04:59;;;;;;;5.18;3.55;;;35.40;55.90;;;;;;5024005;28;20053;-78
2023/07/20 13:07:31;;;;;;;;;;;35.50;56.40;;;;;;5035634;28;20022;-77
2023/07/20 13:10:01;;;;;;;6.35;3.75;;;35.60;56.50;;;;;;5035302;28;19909;-78
2023/07/20 13:12:29;;;;;;;8.13;3.70;;;35.70;57.00;;;;;;5022077;28;20029;-77
2023/07/20 13:14:55;;;;;;;4.43;3.63;;;35.90;56.00;;;;;;5022191;28;20032;-78
2023/07/20 13:17:24;;;;;;;9.13;4.38;;;36.20;54.80;;;;;;5032701;28;20022;-78
2023/07/20 13:19:50;;;;;;;5.05;3.72;;;36.60;56.10;;;;;;5023562;28;20113;-78
2023/07/20 13:22:16;;;;;;;7.55;3.90;;;37.30;54.70;;;;;;5009093;28;20037;-78
2023/07/20 13:24:44;;;;;;;;;;;38.10;53.50;;;;;;5023807;28;20040;-76
2023/07/20 13:27:10;;;;;;;7.38;4.00;;;38.80;51.20;;;;;;5041900;28;19940;-78
2023/07/20 13:29:36;;;;;;;;;;;39.70;50.40;;;;;;5031380;28;20447;-78
2023/07/20 13:32:04;;;;;;;5.95;3.67;;;40.50;47.20;;;;;;5027033;28;19976;-78
2023/07/20 13:34:30;;;;;;;5.15;3.70;;;41.30;46.80;;;;;;5008563;28;20038;-78
2023/07/20 13:36:55;;;;;;;6.13;3.10;;;42.00;45.50;;;;;;5042135;28;20045;-77
2023/07/20 13:39:24;;;;;;;7.78;3.80;;;42.80;44.60;;;;;;5039277;28;20056;-77
2023/07/20 13:41:50;;;;;;;17.58;4.72;;;43.30;43.10;;;;;;5033843;28;20508;-77
2023/07/20 13:44:16;;;;;;;6.15;3.95;;;43.90;42.80;;;;;;5032435;28;20022;-78
2023/07/20 13:46:42;;;;;;;6.50;3.90;;;44.40;41.90;;;;;;5003075;28;20049;-78
2023/07/20 13:49:07;;;;;;;6.43;3.88;;;44.80;41.30;;;;;;5004931;28;20038;-81
2023/07/20 13:51:33;;;;;;;9.43;4.32;;;44.90;41.00;;;;;;5000252;28;20029;-85
2023/07/20 13:53:59;;;;;;;12.48;6.45;;;45.30;40.80;;;;;;5012730;28;20488;-82
2023/07/20 13:56:25;;;;;;;4.18;3.65;;;45.50;39.80;;;;;;4988407;28;20073;-83
2023/07/20 13:58:51;;;;;;;6.28;3.80;;;46.10;39.10;;;;;;4992060;28;20029;-82
2023/07/20 14:01:20;;;;;;;7.85;4.20;;;46.50;39.10;;;;;;5017140;28;20025;-81
2023/07/20 14:03:46;;;;;;;9.25;3.83;;;47.20;38.20;;;;;;5024564;28;20459;-81
2023/07/20 14:06:13;;;;;;;9.57;4.65;;;47.60;37.70;;;;;;5023274;28;20574;-82
2023/07/20 14:08:40;;;;;;;10.18;3.70;;;47.80;37.50;;;;;;5014120;28;20033;-82
2023/07/20 14:11:06;;;;;;;7.15;3.08;;;48.10;37.90;;;;;;5007495;28;20504;-83
2023/07/20 14:13:32;;;;;;;6.63;4.13;;;48.30;37.10;;;;;;5024924;28;20037;-82
2023/07/20 14:15:58;;;;;;;7.15;4.40;;;48.70;36.60;;;;;;4992587;28;20029;-85
2023/07/20 14:18:24;;;;;;;5.47;4.20;;;49.10;35.60;;;;;;5011481;28;20034;-84
2023/07/20 14:20:50;;;;;;;7.20;3.95;;;49.50;35.30;;;;;;5008931;28;20045;-84
2023/07/20 14:23:16;;;;;;;7.65;4.70;;;49.50;35.30;;;;;;4995783;28;20036;-84
2023/07/20 14:25:42;;;;;;;5.68;3.63;;;49.50;34.70;;;;;;4995111;28;20030;-84
2023/07/20 14:28:08;;;;;;;6.93;4.25;;;49.70;35.40;;;;;;5019269;28;20123;-85
2023/07/20 14:30:33;;;;;;;7.57;3.42;;;50.00;35.20;;;;;;5009428;28;20128;-85
2023/07/20 14:32:59;;;;;;;7.45;4.38;;;50.20;35.00;;;;;;5018489;28;20032;-85
2023/07/20 14:35:26;;;;;;;10.73;4.20;;;50.30;34.60;;;;;;4997618;28;20037;-85
2023/07/20 14:37:52;;;;;;;46.35;27.30;;;50.40;34.50;;;;;;5015753;28;20029;-84
2023/07/20 14:40:19;;;;;;;4.60;3.67;;;50.20;34.20;;;;;;4998140;28;20026;-86
2023/07/20 14:42:44;;;;;;;5.35;3.70;;;50.40;34.10;;;;;;4997662;28;20116;-81
2023/07/20 14:45:11;;;;;;;8.13;3.95;;;50.80;34.70;;;;;;5001461;28;20112;-81
2023/07/20 14:47:36;;;;;;;6.93;4.15;;;50.90;33.40;;;;;;5014626;28;20033;-82
2023/07/20 14:50:03;;;;;;;3.88;3.50;;;50.80;33.40;;;;;;5014382;28;20467;-82
2023/07/20 14:52:29;;;;;;;77.75;8.63;;;50.70;34.10;;;;;;5015196;28;20161;-81
2023/07/20 14:54:55;;;;;;;6.13;3.67;;;50.60;34.50;;;;;;4980647;28;20062;-81
2023/07/20 14:57:23;;;;;;;24.33;5.07;;;50.30;34.00;;;;;;5014373;28;20050;-81
2023/07/20 14:59:49;;;;;;;13.50;5.30;;;49.90;34.70;;;;;;4997630;28;20033;-81
2023/07/20 15:02:16;;;;;;;6.38;4.68;;;49.30;34.10;;;;;;5022581;28;20029;-82
2023/07/20 15:04:49;;;;;;;6.78;3.67;;;48.60;35.00;;;;;;5016335;28;20033;-83
2023/07/20 15:07:19;;;;;;;7.60;3.22;;;47.80;35.90;;;;;;5034151;28;20053;-81
2023/07/20 15:09:45;;;;;;;6.10;3.85;;;47.20;36.80;;;;;;5003639;28;20380;-81
2023/07/20 15:12:12;;;;;;;9.35;3.50;;;45.70;37.10;;;;;;5021161;28;20026;-82
2023/07/20 15:14:42;;;;;;;8.05;4.22;;;44.60;39.00;;;;;;5020223;28;20496;-82
2023/07/20 15:17:08;;;;;;;7.40;3.92;;;43.90;40.30;;;;;;5021940;28;20035;-81
2023/07/20 15:19:35;;;;;;;6.97;3.80;;;43.40;40.90;;;;;;5035011;28;20502;-81
2023/07/20 15:22:16;;;;;;;4.80;3.60;;;43.00;41.40;;;;;;5037755;28;20500;-82
2023/07/20 15:24:42;;;;;;;6.00;3.50;;;42.60;44.10;;;;;;5005639;28;20096;-82
2023/07/20 15:27:08;;;;;;;6.95;3.60;;;42.30;42.20;;;;;;5035512;28;20081;-82
2023/07/20 15:29:35;;;;;;;5.60;3.58;;;41.80;42.00;;;;;;5018915;28;20481;-82
2023/07/20 15:32:01;;;;;;;6.60;3.50;;;41.40;42.90;;;;;;5018507;28;20057;-80
2023/07/20 15:34:27;;;;;;;7.15;3.92;;;41.10;43.30;;;;;;5000685;28;20484;-82
2023/07/20 15:36:53;;;;;;;8.60;3.92;;;41.00;43.40;;;;;;5019458;28;20056;-81
2023/07/20 15:39:20;;;;;;;7.78;4.18;;;40.80;43.40;;;;;;5020454;28;20435;-81
2023/07/20 15:41:47;;;;;;;7.57;4.22;;;40.60;44.00;;;;;;5001717;28;20065;-82
2023/07/20 15:44:14;;;;;;;10.48;3.78;;;40.40;45.40;;;;;;5003204;28;20033;-81
2023/07/20 15:46:39;;;;;;;11.02;4.43;;;40.20;45.30;;;;;;5018505;28;20034;-80
2023/07/20 15:49:05;;;;;;;7.55;3.70;;;40.10;44.60;;;;;;5022547;28;20041;-80
2023/07/20 15:51:33;;;;;;;8.63;4.10;;;39.90;45.20;;;;;;5020698;28;20068;-82
2023/07/20 15:53:59;;;;;;;13.00;4.90;;;39.70;45.70;;;;;;5012646;28;20033;-82
2023/07/20 15:56:25;;;;;;;7.70;4.35;;;39.50;46.40;;;;;;5023192;28;20036;-81
2023/07/20 15:58:51;;;;;;;7.72;4.40;;;39.50;46.30;;;;;;5026228;28;20433;-81
2023/07/20 16:01:17;;;;;;;8.40;3.83;;;39.30;46.10;;;;;;5021830;28;20415;-79
2023/07/20 16:03:52;;;;;;;8.60;4.10;;;39.30;46.30;;;;;;5032824;28;20084;-82
2023/07/20 16:06:20;;;;;;;12.07;4.32;;;39.10;46.20;;;;;;5020346;28;20030;-81
2023/07/20 16:08:58;;;;;;;6.38;3.90;;;39.00;45.90;;;;;;5019247;28;20037;-80
2023/07/20 16:11:24;;;;;;;8.73;4.35;;;38.90;47.10;;;;;;5018888;28;20030;-81
2023/07/20 16:14:03;;;;;;;8.52;4.32;;;38.70;46.90;;;;;;5001502;28;20416;-81
2023/07/20 16:16:30;;;;;;;9.30;4.07;;;38.50;47.20;;;;;;5019362;28;20059;-82
2023/07/20 16:18:56;;;;;;;10.55;3.92;;;38.30;47.90;;;;;;5018263;28;20034;-81
2023/07/20 16:21:24;;;;;;;7.70;3.90;;;38.20;49.20;;;;;;5016566;28;20042;-81
2023/07/20 16:23:50;;;;;;;7.47;4.28;;;38.20;49.30;;;;;;5016845;28;20025;-81
2023/07/20 16:26:16;;;;;;;12.90;4.57;;;38.20;48.90;;;;;;5017639;28;20504;-81
2023/07/20 16:28:43;;;;;;;10.07;4.47;;;38.10;48.20;;;;;;5000009;28;20038;-82
2023/07/20 16:31:31;;;;;;;7.93;4.28;;;37.90;48.60;;;;;;4999674;28;20165;-80
2023/07/20 16:33:57;;;;;;;10.82;3.90;;;37.80;49.90;;;;;;5000615;28;20500;-81
2023/07/20 16:36:23;;;;;;;;;;;37.80;50.20;;;;;;4999849;28;20034;-82
2023/07/20 16:38:49;;;;;;;8.52;4.35;;;37.60;49.70;;;;;;5015737;28;20000;-82
2023/07/20 16:41:14;;;;;;;;;;;37.40;50.30;;;;;;5059404;23;20048;-83
2023/07/20 16:43:40;;;;;;;8.70;3.78;;;37.30;51.70;;;;;;5033762;28;19905;-83
2023/07/20 16:46:08;;;;;;;;;;;37.40;50.90;;;;;;5033052;28;20036;-83
2023/07/20 16:48:34;;;;;;;;;;;37.40;50.90;;;;;;5032883;28;19953;-83
2023/07/20 16:51:01;;;;;;;9.35;4.30;;;37.40;51.20;;;;;;5027312;28;19918;-83
2023/07/20 16:53:27;;;;;;;8.57;5.03;;;37.40;49.80;;;;;;5012831;28;20038;-83
2023/07/20 16:55:55;;;;;;;;;;;37.30;50.10;;;;;;5014207;28;20030;-83
2023/07/20 16:58:23;;;;;;;5.38;3.80;;;37.20;51.20;;;;;;5012403;28;19912;-83
2023/07/20 17:00:49;;;;;;;10.18;4.45;;;37.10;51.90;;;;;;5012395;28;20064;-83
2023/07/20 17:03:16;;;;;;;11.00;5.25;;;37.10;51.40;;;;;;5012412;28;20109;-83
2023/07/20 17:05:43;;;;;;;8.52;4.47;;;37.00;51.10;;;;;;5012031;28;20076;-83
2023/07/20 17:08:08;;;;;;;10.05;4.40;;;37.00;51.70;;;;;;5013439;28;20499;-83
2023/07/20 17:10:36;;;;;;;5.93;4.38;;;37.00;52.60;;;;;;5011828;28;20045;-85
2023/07/20 17:13:03;;;;;;;7.72;4.45;;;36.90;52.50;;;;;;5012289;28;20079;-82
2023/07/20 17:15:30;;;;;;;9.65;4.32;;;36.70;52.90;;;;;;5012109;28;20034;-84
2023/07/20 17:17:57;;;;;;;8.07;4.18;;;36.50;53.40;;;;;;5013232;28;20511;-82
2023/07/20 17:20:23;;;;;;;8.63;5.18;;;36.50;53.40;;;;;;5012862;28;20033;-84
2023/07/20 17:22:49;;;;;;;10.15;5.03;;;36.50;53.30;;;;;;5011860;28;20014;-82
2023/07/20 17:25:14;;;;;;;8.88;3.90;;;36.50;53.60;;;;;;5011835;28;20029;-82
2023/07/20 17:27:41;;;;;;;11.25;4.68;;;36.50;53.70;;;;;;5011655;28;20021;-85
2023/07/20 17:30:07;;;;;;;;;;;36.40;54.40;;;;;;5013640;28;20492;-84
2023/07/20 17:32:33;;;;;;;9.82;4.75;;;36.20;54.80;;;;;;5011537;28;19913;-82
2023/07/20 17:34:58;;;;;;;9.73;5.05;;;36.00;54.90;;;;;;5012665;28;20041;-82
2023/07/20 17:37:24;;;;;;;13.43;4.40;;;35.90;55.30;;;;;;5012884;28;20034;-82
2023/07/20 17:39:51;;;;;;;7.75;5.00;;;35.80;55.60;;;;;;5011671;28;20128;-82
2023/07/20 17:42:18;;;;;;;10.05;4.93;;;35.70;55.70;;;;;;5011337;28;20492;-82
2023/07/20 17:44:44;;;;;;;10.55;5.38;;;35.60;56.10;;;;;;5012716;28;20026;-84
2023/07/20 17:47:11;;;;;;;9.25;4.95;;;35.50;56.40;;;;;;5012586;28;20096;-84
2023/07/20 17:49:36;;;;;;;;;;;35.40;56.50;;;;;;5011766;28;20036;-82
2023/07/20 17:52:02;;;;;;;9.68;4.80;;;35.40;57.00;;;;;;4995002;28;19913;-85
2023/07/20 17:54:29;;;;;;;13.43;6.13;;;35.30;56.50;;;;;;5011288;28;20033;-82
2023/07/20 17:56:55;;;;;;;7.97;4.65;;;35.30;56.20;;;;;;5010929;28;20026;-82
2023/07/20 17:59:21;;;;;;;7.43;4.18;;;35.20;56.60;;;;;;4994850;28;20030;-82
2023/07/20 18:01:47;;;;;;;8.60;4.97;;;35.10;56.80;;;;;;5011064;28;20037;-82
2023/07/20 18:04:13;;;;;;;12.50;4.97;;;35.00;56.60;;;;;;5014532;28;20047;-82
2023/07/20 18:06:39;;;;;;;9.52;4.80;;;34.90;57.10;;;;;;4998222;28;20022;-82
2023/07/20 18:09:07;;;;;;;10.48;5.63;;;34.80;57.20;;;;;;5014390;28;20030;-82
2023/07/20 18:11:33;;;;;;;9.68;4.90;;;34.80;57.30;;;;;;5032181;28;20025;-82
2023/07/20 18:14:00;;;;;;;11.20;5.47;;;34.70;57.70;;;;;;5014516;28;20025;-82
2023/07/20 18:16:27;;;;;;;11.40;5.65;;;34.50;57.80;;;;;;5014292;28;20503;-81
2023/07/20 18:18:53;;;;;;;10.93;4.40;;;34.50;57.80;;;;;;5031769;28;20547;-84
2023/07/20 18:21:18;;;;;;;12.10;4.90;;;34.50;58.10;;;;;;4997701;28;20112;-83
2023/07/20 18:23:46;;;;;;;14.68;6.10;;;34.40;58.40;;;;;;4998268;28;20046;-81
2023/07/20 18:26:12;;;;;;;13.40;4.82;;;34.30;58.70;;;;;;5014134;28;20025;-81
2023/07/20 18:28:37;;;;;;;;;;;34.20;58.90;;;;;;4998103;28;20521;-81
2023/07/20 18:31:05;;;;;;;6.88;4.97;;;34.10;59.40;;;;;;5030476;28;19909;-83
2023/07/20 18:33:31;;;;;;;12.23;5.13;;;34.10;59.40;;;;;;5014419;28;20036;-84
2023/07/20 18:35:56;;;;;;;13.13;5.07;;;34.00;59.60;;;;;;4997032;28;20055;-84
2023/07/20 18:38:22;;;;;;;10.10;4.82;;;33.90;59.90;;;;;;4995949;28;20625;-83
2023/07/20 18:40:49;;;;;;;7.15;4.95;;;33.90;60.20;;;;;;4997203;28;20042;-83
2023/07/20 18:43:15;;;;;;;10.75;5.43;;;33.80;60.40;;;;;;4997632;28;20491;-83
2023/07/20 18:45:41;;;;;;;9.07;5.22;;;33.70;60.50;;;;;;5012100;28;20395;-83
2023/07/20 18:48:08;;;;;;;10.88;5.57;;;33.60;60.80;;;;;;4997582;28;20030;-83
2023/07/20 18:50:34;;;;;;;8.25;5.13;;;33.50;61.20;;;;;;5013929;28;20034;-83
2023/07/20 18:53:00;;;;;;;12.10;5.20;;;33.40;61.40;;;;;;4997703;28;20091;-82
2023/07/20 18:55:27;;;;;;;11.65;5.15;;;33.40;61.80;;;;;;5013894;28;20080;-83
2023/07/20 18:57:53;;;;;;;13.88;5.45;;;33.30;62.00;;;;;;5013576;28;20128;-83
2023/07/20 19:00:19;;;;;;;8.93;5.72;;;33.20;62.30;;;;;;4997645;28;20061;-83
2023/07/20 19:02:45;;;;;;;10.02;6.22;;;33.10;62.40;;;;;;5013865;28;20059;-82
2023/07/20 19:05:11;;;;;;;14.93;6.28;;;33.10;62.80;;;;;;4998234;28;20116;-88
2023/07/20 19:07:38;;;;;;;7.93;5.90;;;32.90;63.80;;;;;;4997323;28;20132;-84
2023/07/20 19:10:05;;;;;;;11.70;5.82;;;32.90;63.60;;;;;;5013892;28;20029;-84
2023/07/20 19:12:31;;;;;;;13.95;6.80;;;32.90;63.80;;;;;;5013701;28;20060;-84
2023/07/20 19:14:56;;;;;;;12.77;5.80;;;32.80;64.10;;;;;;5014007;28;20042;-85
2023/07/20 19:17:26;;;;;;;9.32;6.07;;;32.80;64.50;;;;;;5031028;28;20531;-84
2023/07/20 19:19:52;;;;;;;10.85;5.93;;;32.70;64.80;;;;;;5031288;28;20033;-84
2023/07/20 19:22:18;;;;;;;8.00;5.20;;;32.60;65.20;;;;;;4997097;28;20033;-84
2023/07/20 19:24:44;;;;;;;12.98;6.18;;;32.60;65.50;;;;;;5031425;28;20029;-84
2023/07/20 19:27:10;;;;;;;11.15;6.18;;;32.50;65.80;;;;;;5013601;28;20030;-84
2023/07/20 19:29:35;;;;;;;14.88;6.93;;;32.50;66.20;;;;;;5031279;28;20034;-84
2023/07/20 19:32:01;;;;;;;19.17;7.93;;;32.30;66.60;;;;;;5013495;28;20065;-84
2023/07/20 19:34:27;;;;;;;11.98;6.88;;;32.30;67.00;;;;;;5020318;28;20773;-84
2023/07/20 19:36:53;;;;;;;12.93;7.32;;;32.20;67.30;;;;;;5030986;28;20057;-84
2023/07/20 19:39:19;;;;;;;12.73;6.53;;;32.10;67.70;;;;;;4997210;28;20030;-84
2023/07/20 19:41:44;;;;;;;14.52;7.72;;;32.00;68.10;;;;;;5013074;28;20040;-84
2023/07/20 19:44:10;;;;;;;10.43;8.02;;;31.90;68.60;;;;;;5013577;28;20407;-84
2023/07/20 19:46:38;;;;;;;13.95;7.90;;;31.90;69.00;;;;;;5030922;28;20022;-84
2023/07/20 19:49:04;;;;;;;11.95;7.72;;;31.80;69.30;;;;;;5031302;28;20430;-84
2023/07/20 19:51:30;;;;;;;17.10;8.40;;;31.80;69.50;;;;;;4996988;28;20059;-84
2023/07/20 19:53:57;;;;;;;14.73;8.70;;;31.80;69.80;;;;;;5013459;28;20384;-84
2023/07/20 19:56:24;;;;;;;13.52;8.75;;;31.70;70.10;;;;;;5014087;28;20120;-84
2023/07/20 19:58:50;;;;;;;12.52;8.98;;;31.60;70.80;;;;;;5016991;28;20055;-84
2023/07/20 20:01:16;;;;;;;14.50;8.23;;;31.60;71.40;;;;;;5034290;28;20407;-84
2023/07/20 20:03:42;;;;;;;16.25;9.25;;;31.60;71.60;;;;;;5016867;28;20036;-84
2023/07/20 20:06:11;;;;;;;;;;;31.50;72.10;;;;;;5035211;28;20038;-84
2023/07/20 20:08:38;;;;;;;23.83;9.20;;;31.30;72.80;;;;;;5034836;28;20012;-84
2023/07/20 20:11:04;;;;;;;15.60;10.02;;;31.30;73.00;;;;;;5035597;28;20036;-84
2023/07/20 20:13:31;;;;;;;17.20;11.02;;;31.20;73.50;;;;;;5017863;28;20029;-84
2023/07/20 20:15:58;;;;;;;14.95;11.15;;;31.20;74.10;;;;;;5000720;28;20483;-83
2023/07/20 20:18:28;;;;;;;16.60;10.82;;;31.20;74.50;;;;;;5017510;28;20099;-83
2023/07/20 20:20:57;;;;;;;15.57;10.48;;;31.10;74.80;;;;;;5017724;28;20026;-84
2023/07/20 20:23:23;;;;;;;16.92;11.43;;;31.20;75.20;;;;;;5036370;28;20507;-84
2023/07/20 20:25:52;;;;;;;23.83;11.95;;;31.10;75.70;;;;;;5017130;28;20461;-83
2023/07/20 20:28:18;;;;;;;23.38;13.05;;;31.00;75.90;;;;;;5035677;28;20506;-83
2023/07/20 20:30:50;;;;;;;19.08;11.48;;;31.00;76.00;;;;;;5017908;28;20037;-83
2023/07/20 20:33:20;;;;;;;17.75;12.02;;;30.90;76.30;;;;;;5017935;28;20040;-84
2023/07/20 20:35:50;;;;;;;18.67;12.57;;;30.90;76.60;;;;;;5017369;28;20034;-84
2023/07/20 20:38:26;;;;;;;23.42;12.98;;;30.90;77.40;;;;;;5018144;28;20041;-83
2023/07/20 20:40:52;;;;;;;23.52;12.13;;;30.90;78.10;;;;;;5033734;28;20450;-84
2023/07/20 20:43:19;;;;;;;;;;;30.80;77.50;;;;;;5018598;28;20022;-83
2023/07/20 20:45:45;;;;;;;24.70;12.57;;;30.80;76.90;;;;;;5033485;28;20403;-83
2023/07/20 20:48:11;;;;;;;19.58;12.43;;;30.90;77.60;;;;;;5016429;28;20038;-84
2023/07/20 20:50:45;;;;;;;20.80;13.63;;;30.80;77.60;;;;;;5034057;28;20033;-84
2023/07/20 20:53:15;;;;;;;23.52;12.60;;;30.80;77.90;;;;;;5014701;28;20029;-83
2023/07/20 20:55:41;;;;;;;18.83;14.13;;;30.90;78.30;;;;;;5016081;28;20399;-83
2023/07/20 20:58:08;;;;;;;17.40;12.43;;;30.80;78.30;;;;;;5033819;28;20029;-83
2023/07/20 21:00:34;;;;;;;23.63;13.50;;;30.70;78.70;;;;;;4999500;28;20035;-84
2023/07/20 21:03:00;;;;;;;16.85;12.75;;;30.70;79.00;;;;;;5016145;28;20030;-83
2023/07/20 21:05:26;;;;;;;14.63;12.88;;;30.60;79.20;;;;;;5016363;28;20504;-83
2023/07/20 21:07:52;;;;;;;25.50;14.68;;;30.60;79.30;;;;;;4998312;28;20049;-83
2023/07/20 21:10:18;;;;;;;23.75;13.52;;;30.60;79.70;;;;;;5015635;28;20034;-84
2023/07/20 21:12:44;;;;;;;;;;;30.60;79.90;;;;;;5032884;28;20018;-84
2023/07/20 21:15:10;;;;;;;19.00;13.45;;;30.50;80.40;;;;;;5015590;28;19916;-84
2023/07/20 21:17:36;;;;;;;25.40;16.05;;;30.50;80.50;;;;;;5033029;28;20017;-84
2023/07/20 21:20:03;;;;;;;22.00;15.15;;;30.50;80.90;;;;;;4999172;28;20029;-84
2023/07/20 21:22:29;;;;;;;16.52;13.85;;;30.50;81.30;;;;;;4998678;28;20382;-84
2023/07/20 21:24:55;;;;;;;21.90;14.00;;;30.40;81.40;;;;;;4998948;28;20559;-84
2023/07/20 21:27:22;;;;;;;18.42;14.38;;;30.40;81.60;;;;;;5032695;28;20116;-84
2023/07/20 21:29:48;;;;;;;20.45;13.98;;;30.40;82.10;;;;;;5015822;28;20026;-84
2023/07/20 21:32:14;;;;;;;18.77;14.15;;;30.30;82.20;;;;;;5033696;28;20045;-84
